createdAt,value
2018-12-26T00:00:04.963Z,65.68
2018-12-26T00:02:27.112Z,65.62
2018-12-26T00:04:46.779Z,65.73
2018-12-26T00:07:06.192Z,65.78
2018-12-26T00:09:25.537Z,65.91
2018-12-26T00:11:45.751Z,66.01
2018-12-26T00:14:06.906Z,66.07
2018-12-26T00:16:27.891Z,66.08
2018-12-26T00:18:47.521Z,66.06
2018-12-26T00:21:07.589Z,66.08
2018-12-26T00:23:58.988Z,65.98
2018-12-26T00:26:46.672Z,65.92
2018-12-26T00:29:20.883Z,65.87
2018-12-26T00:31:43.776Z,65.89
2018-12-26T00:34:07.015Z,65.85
2018-12-26T00:36:39.791Z,65.79
2018-12-26T00:39:02.684Z,65.78
2018-12-26T00:41:37.423Z,65.79
2018-12-26T00:44:06.111Z,65.85
2018-12-26T00:46:29.727Z,65.89
2018-12-26T00:48:51.048Z,65.82
2018-12-26T00:51:12.913Z,65.86
2018-12-26T00:53:32.972Z,65.92
2018-12-26T00:55:56.843Z,65.94
2018-12-26T00:58:32.661Z,65.91
2018-12-26T01:00:53.879Z,65.90
2018-12-26T01:03:17.019Z,65.85
2018-12-26T01:05:41.891Z,65.83
2018-12-26T01:08:24.298Z,65.75
2018-12-26T01:11:01.414Z,65.83
2018-12-26T01:13:20.927Z,65.93
2018-12-26T01:15:42.669Z,65.93
2018-12-26T01:18:06.076Z,65.92
2018-12-26T01:20:28.087Z,65.90
2018-12-26T01:22:48.557Z,65.78
2018-12-26T01:25:14.918Z,65.76
2018-12-26T01:27:36.960Z,65.78
2018-12-26T01:30:27.486Z,65.76
2018-12-26T01:33:14.188Z,65.75
2018-12-26T01:35:32.463Z,65.87
2018-12-26T01:37:56.363Z,65.96
2018-12-26T01:40:21.117Z,65.96
2018-12-26T01:42:44.576Z,65.92
2018-12-26T01:45:17.340Z,65.87
2018-12-26T01:47:41.884Z,65.88
2018-12-26T01:52:58.687Z,65.82
2018-12-26T01:55:21.176Z,65.80
2018-12-26T01:57:43.759Z,65.83
2018-12-26T02:00:04.484Z,65.82
2018-12-26T02:02:26.759Z,65.78
2018-12-26T02:04:47.821Z,65.84
2018-12-26T02:07:00.560Z,65.86
2018-12-26T02:09:22.565Z,65.88
2018-12-26T02:11:59.513Z,65.87
2018-12-26T02:14:22.767Z,65.93
2018-12-26T02:16:58.535Z,65.92
2018-12-26T02:19:21.702Z,65.87
2018-12-26T02:21:44.485Z,65.88
2018-12-26T02:24:04.200Z,65.96
2018-12-26T02:26:23.808Z,65.98
2018-12-26T02:28:44.686Z,65.99
2018-12-26T02:31:06.450Z,65.99
2018-12-26T02:33:31.359Z,66.05
2018-12-26T02:36:02.705Z,66.02
2018-12-26T02:38:22.187Z,65.94
2018-12-26T02:40:41.589Z,65.91
2018-12-26T02:43:01.410Z,65.90
2018-12-26T02:45:20.807Z,65.93
2018-12-26T02:47:40.137Z,66.00
2018-12-26T02:50:00.801Z,65.94
2018-12-26T02:52:19.994Z,65.88
2018-12-26T02:54:40.444Z,65.91
2018-12-26T02:56:59.865Z,65.97
2018-12-26T02:59:19.313Z,66.00
2018-12-26T03:01:38.378Z,65.92
2018-12-26T03:03:58.028Z,65.95
2018-12-26T03:06:17.948Z,66.00
2018-12-26T03:08:37.744Z,66.00
2018-12-26T03:10:57.369Z,66.01
2018-12-26T03:13:16.450Z,66.05
2018-12-26T03:15:36.185Z,66.11
2018-12-26T03:17:55.816Z,66.13
2018-12-26T03:20:15.158Z,66.15
2018-12-26T03:22:34.592Z,66.19
2018-12-26T03:24:54.544Z,66.10
2018-12-26T03:27:14.099Z,66.07
2018-12-26T03:29:32.075Z,66.02
2018-12-26T03:31:52.131Z,65.96
2018-12-26T03:34:11.595Z,65.95
2018-12-26T03:36:30.808Z,65.93
2018-12-26T03:38:50.112Z,65.94
2018-12-26T03:41:09.996Z,65.97
2018-12-26T03:43:29.454Z,65.99
2018-12-26T03:45:48.758Z,66.03
2018-12-26T03:48:08.168Z,66.14
2018-12-26T03:50:27.473Z,66.19
2018-12-26T03:52:46.963Z,66.17
2018-12-26T03:55:07.401Z,66.14
2018-12-26T03:57:27.058Z,66.06
2018-12-26T03:59:46.755Z,66.04
2018-12-26T04:02:06.078Z,66.02
2018-12-26T04:04:25.803Z,65.95
2018-12-26T04:06:45.259Z,65.95
2018-12-26T04:09:04.247Z,65.93
2018-12-26T04:11:24.315Z,65.86
2018-12-26T04:13:42.648Z,65.87
2018-12-26T04:16:00.775Z,65.79
2018-12-26T04:18:20.310Z,65.81
2018-12-26T04:20:39.985Z,65.73
2018-12-26T04:22:59.026Z,65.66
2018-12-26T04:25:18.627Z,65.74
2018-12-26T04:27:37.913Z,65.82
2018-12-26T04:29:56.952Z,65.81
2018-12-26T04:32:16.310Z,65.76
2018-12-26T04:34:36.806Z,65.72
2018-12-26T04:36:55.857Z,65.72
2018-12-26T04:39:14.852Z,65.69
2018-12-26T04:41:34.271Z,65.65
2018-12-26T04:43:54.009Z,65.67
2018-12-26T04:46:13.480Z,65.69
2018-12-26T04:48:32.812Z,65.64
2018-12-26T04:50:52.300Z,65.62
2018-12-26T04:53:11.756Z,65.61
2018-12-26T04:55:32.166Z,65.60
2018-12-26T04:57:51.697Z,65.56
2018-12-26T05:00:11.163Z,65.50
2018-12-26T05:02:30.701Z,65.49
2018-12-26T05:04:50.281Z,65.46
2018-12-26T05:07:11.051Z,65.46
2018-12-26T05:09:30.701Z,65.53
2018-12-26T05:11:50.178Z,65.65
2018-12-26T05:14:09.593Z,65.64
2018-12-26T05:16:29.064Z,65.64
2018-12-26T05:18:48.778Z,65.69
2018-12-26T05:21:07.174Z,65.60
2018-12-26T05:23:26.444Z,65.50
2018-12-26T05:25:46.800Z,65.43
2018-12-26T05:28:06.581Z,65.35
2018-12-26T05:30:25.695Z,65.34
2018-12-26T05:32:45.569Z,65.39
2018-12-26T05:35:04.616Z,65.46
2018-12-26T05:37:23.932Z,65.51
2018-12-26T05:39:44.015Z,65.56
2018-12-26T05:42:03.430Z,65.56
2018-12-26T05:44:21.392Z,65.58
2018-12-26T05:46:41.739Z,65.63
2018-12-26T05:49:01.365Z,65.72
2018-12-26T05:51:19.515Z,65.82
2018-12-26T05:54:55.730Z,65.69
2018-12-26T05:57:02.455Z,65.65
2018-12-26T06:00:16.730Z,65.72
2018-12-26T06:02:36.240Z,65.79
2018-12-26T06:06:22.868Z,65.79
2018-12-26T06:08:41.554Z,65.80
2018-12-26T06:11:01.908Z,65.81
2018-12-26T06:13:21.514Z,65.77
2018-12-26T06:15:28.733Z,65.61
2018-12-26T06:17:47.950Z,65.64
2018-12-26T06:20:07.960Z,65.68
2018-12-26T06:22:27.837Z,65.75
2018-12-26T06:24:46.950Z,65.83
2018-12-26T06:27:06.154Z,65.81
2018-12-26T06:29:26.115Z,65.78
2018-12-26T06:31:46.035Z,65.76
2018-12-26T06:34:05.614Z,65.74
2018-12-26T06:36:26.114Z,65.75
2018-12-26T06:38:45.630Z,65.71
2018-12-26T06:41:05.406Z,65.64
2018-12-26T06:43:25.068Z,65.56
2018-12-26T06:45:43.203Z,65.52
2018-12-26T06:48:02.898Z,65.51
2018-12-26T06:50:23.019Z,65.48
2018-12-26T06:52:42.240Z,65.48
2018-12-26T06:55:02.818Z,65.40
2018-12-26T06:57:22.815Z,65.44
2018-12-26T06:59:42.876Z,65.48
2018-12-26T07:02:02.420Z,65.47
2018-12-26T07:04:21.616Z,65.49
2018-12-26T07:06:41.601Z,65.52
2018-12-26T07:08:59.329Z,65.37
2018-12-26T07:11:18.676Z,65.44
2018-12-26T07:13:38.294Z,65.53
2018-12-26T07:15:58.361Z,65.54
2018-12-26T07:18:17.562Z,65.53
2018-12-26T07:20:36.765Z,65.52
2018-12-26T07:22:54.574Z,65.50
2018-12-26T07:25:14.286Z,65.43
2018-12-26T07:27:33.627Z,65.41
2018-12-26T07:31:00.116Z,65.35
2018-12-26T07:33:42.830Z,65.33
2018-12-26T07:36:26.439Z,65.32
2018-12-26T07:42:18.601Z,65.32
2018-12-26T07:48:46.390Z,65.27
2018-12-26T07:51:36.378Z,65.25
2018-12-26T07:54:20.842Z,65.27
2018-12-26T08:00:08.263Z,65.30
2018-12-26T08:05:52.370Z,65.40
2018-12-26T08:11:36.954Z,65.35
2018-12-26T08:14:39.733Z,65.24
2018-12-26T08:17:24.850Z,65.17
2018-12-26T08:20:15.407Z,65.29
2018-12-26T08:23:17.104Z,65.44
2018-12-26T08:29:02.469Z,65.49
2018-12-26T08:32:25.265Z,65.77
2018-12-26T08:35:23.611Z,65.85
2018-12-26T08:41:10.738Z,65.83
2018-12-26T08:46:57.195Z,65.67
2018-12-26T08:49:47.267Z,65.65
2018-12-26T08:52:32.564Z,65.59
2018-12-26T08:55:18.543Z,65.38
2018-12-26T08:58:18.368Z,65.28
2018-12-26T09:01:02.875Z,65.24
2018-12-26T09:04:13.722Z,65.21
2018-12-26T09:06:56.985Z,65.17
2018-12-26T09:12:56.410Z,65.04
2018-12-26T09:18:43.212Z,65.26
2018-12-26T09:24:28.448Z,65.55
2018-12-26T09:27:37.462Z,65.58
2018-12-26T09:30:21.540Z,65.36
2018-12-26T09:33:05.729Z,65.45
2018-12-26T09:35:55.943Z,65.57
2018-12-26T09:38:40.213Z,65.51
2018-12-26T11:01:48.109Z,66.43
2018-12-26T11:04:18.788Z,66.32
2018-12-26T11:06:49.482Z,66.34
2018-12-26T11:09:20.085Z,66.28
2018-12-26T11:11:50.717Z,66.15
2018-12-26T11:15:12.933Z,66.06
2018-12-26T11:17:44.623Z,66.03
2018-12-26T11:22:07.694Z,65.82
2018-12-26T11:24:38.290Z,65.80
2018-12-26T11:27:08.920Z,65.88
2018-12-26T11:29:41.083Z,65.96
2018-12-26T11:32:11.854Z,65.97
2018-12-26T11:34:42.608Z,65.91
2018-12-26T11:37:14.042Z,65.86
2018-12-26T11:39:44.806Z,65.78
2018-12-26T11:42:16.378Z,65.65
2018-12-26T11:44:47.125Z,65.54
2018-12-26T11:47:17.748Z,65.50
2018-12-26T11:49:48.371Z,65.39
2018-12-26T11:52:19.479Z,65.29
2018-12-26T11:54:50.573Z,65.20
2018-12-26T11:57:21.268Z,65.11
2018-12-26T11:59:51.961Z,65.05
2018-12-26T12:02:22.595Z,65.05
2018-12-26T12:04:54.173Z,65.04
2018-12-26T12:07:25.214Z,64.97
2018-12-26T12:09:55.887Z,64.91
2018-12-26T12:12:26.882Z,65.08
2018-12-26T12:14:57.780Z,65.09
2018-12-26T12:17:28.549Z,64.94
2018-12-26T12:19:59.321Z,64.92
2018-12-26T12:22:30.421Z,64.96
2018-12-26T12:25:01.066Z,65.01
2018-12-26T12:27:31.767Z,65.17
2018-12-26T12:30:02.477Z,65.21
2018-12-26T12:32:34.628Z,65.15
2018-12-26T12:35:06.393Z,64.98
2018-12-26T12:37:38.130Z,64.94
2018-12-26T12:40:11.386Z,64.96
2018-12-26T12:42:42.096Z,64.88
2018-12-26T12:45:12.987Z,64.94
2018-12-26T12:47:43.766Z,64.96
2018-12-26T12:50:14.475Z,64.82
2018-12-26T12:52:45.291Z,64.68
2018-12-26T12:55:16.635Z,64.55
2018-12-26T12:57:47.627Z,64.55
2018-12-26T13:00:18.499Z,64.55
2018-12-26T13:02:49.325Z,64.71
2018-12-26T13:05:20.046Z,64.83
2018-12-26T13:07:50.730Z,64.77
2018-12-26T13:10:22.151Z,64.59
2018-12-26T13:12:53.031Z,64.42
2018-12-26T13:15:23.848Z,64.29
2018-12-26T13:17:55.017Z,64.20
2018-12-26T13:20:25.676Z,64.10
2018-12-26T13:22:57.628Z,64.01
2018-12-26T13:25:29.241Z,64.10
2018-12-26T13:28:00.389Z,64.04
2018-12-26T13:30:31.105Z,64.05
2018-12-26T13:33:02.048Z,64.03
2018-12-26T13:35:32.756Z,64.10
2018-12-26T13:38:03.736Z,64.04
2018-12-26T13:40:35.571Z,63.97
2018-12-26T13:43:06.293Z,63.85
2018-12-26T13:45:37.393Z,63.88
2018-12-26T13:48:08.030Z,63.80
2018-12-26T13:50:38.658Z,63.87
2018-12-26T13:53:09.365Z,64.00
2018-12-26T13:55:41.117Z,64.03
2018-12-26T13:58:11.922Z,64.03
2018-12-26T14:00:44.374Z,63.91
2018-12-26T14:03:15.103Z,63.69
2018-12-26T14:05:46.857Z,63.57
2018-12-26T14:08:17.980Z,63.40
2018-12-26T14:10:48.581Z,63.30
2018-12-26T14:13:19.634Z,63.24
2018-12-26T14:15:51.473Z,63.25
2018-12-26T14:18:23.309Z,63.36
2018-12-26T14:20:54.138Z,63.43
2018-12-26T14:23:25.962Z,63.50
2018-12-26T14:27:29.332Z,63.62
2018-12-26T14:30:20.607Z,63.62
2018-12-26T14:32:53.315Z,63.69
2018-12-26T14:35:25.001Z,63.72
2018-12-26T14:37:56.695Z,63.66
2018-12-26T14:40:29.446Z,63.53
2018-12-26T14:43:02.469Z,63.50
2018-12-26T14:45:34.193Z,63.43
2018-12-26T14:48:06.081Z,63.38
2018-12-26T14:50:38.875Z,63.45
2018-12-26T14:53:10.600Z,63.49
2018-12-26T14:55:43.357Z,63.42
2018-12-26T14:58:15.115Z,63.38
2018-12-26T15:00:46.927Z,63.29
2018-12-26T15:03:18.614Z,63.33
2018-12-26T15:05:50.294Z,63.27
2018-12-26T15:08:22.559Z,63.18
2018-12-26T15:11:00.599Z,63.10
2018-12-26T15:13:31.772Z,63.11
2018-12-26T15:16:09.583Z,63.20
2018-12-26T15:18:48.046Z,63.12
2018-12-26T15:21:24.550Z,63.22
2018-12-26T15:23:56.216Z,63.32
2018-12-26T15:26:28.661Z,63.32
2018-12-26T15:29:00.518Z,63.31
2018-12-26T15:31:32.494Z,63.29
2018-12-26T15:34:08.764Z,63.32
2018-12-26T15:36:41.605Z,63.38
2018-12-26T15:39:13.671Z,63.35
2018-12-26T15:41:46.281Z,63.37
2018-12-26T15:44:17.972Z,63.43
2018-12-26T15:46:49.943Z,63.42
2018-12-26T15:49:21.645Z,63.44
2018-12-26T15:51:54.548Z,63.46
2018-12-26T15:54:26.245Z,63.40
2018-12-26T15:56:59.231Z,63.36
2018-12-26T15:59:30.971Z,63.30
2018-12-26T16:02:02.799Z,63.28
2018-12-26T16:04:34.505Z,63.28
2018-12-26T16:07:06.324Z,63.28
2018-12-26T16:09:38.112Z,63.28
2018-12-26T16:12:11.055Z,63.32
2018-12-26T16:14:42.821Z,63.31
2018-12-26T16:17:15.889Z,63.30
2018-12-26T16:19:47.680Z,63.27
2018-12-26T16:22:36.892Z,63.23
2018-12-26T16:25:09.142Z,63.23
2018-12-26T16:27:41.558Z,63.26
2018-12-26T16:30:13.208Z,63.30
2018-12-26T16:32:45.015Z,63.31
2018-12-26T16:35:16.707Z,63.29
2018-12-26T16:37:48.419Z,63.26
2018-12-26T16:40:20.142Z,63.28
2018-12-26T16:42:52.600Z,63.24
2018-12-26T16:45:24.298Z,63.18
2018-12-26T16:47:56.083Z,63.15
2018-12-26T16:50:28.020Z,63.16
2018-12-26T16:53:01.016Z,63.16
2018-12-26T16:55:33.132Z,63.20
2018-12-26T16:58:05.552Z,63.25
2018-12-26T17:00:37.382Z,63.32
2018-12-26T17:03:09.228Z,63.44
2018-12-26T17:05:41.072Z,63.48
2018-12-26T17:08:12.788Z,63.46
2018-12-26T17:10:44.463Z,63.43
2018-12-26T17:13:16.175Z,63.42
2018-12-26T17:15:48.455Z,63.41
2018-12-26T17:18:20.158Z,63.40
2018-12-26T17:20:51.982Z,63.37
2018-12-26T17:23:24.031Z,63.48
2018-12-26T17:25:55.793Z,63.51
2018-12-26T17:28:27.452Z,63.50
2018-12-26T17:31:04.062Z,63.46
2018-12-26T17:33:33.257Z,63.46
2018-12-26T17:36:05.063Z,63.50
2018-12-26T17:38:36.877Z,63.47
2018-12-26T17:41:08.702Z,63.41
2018-12-26T17:43:40.376Z,63.38
2018-12-26T17:46:12.877Z,63.50
2018-12-26T17:48:44.706Z,63.52
2018-12-26T17:51:20.891Z,63.50
2018-12-26T17:54:37.513Z,63.51
2018-12-26T17:57:22.717Z,63.52
2018-12-26T18:00:54.398Z,63.41
2018-12-26T18:03:26.928Z,63.25
2018-12-26T18:05:58.862Z,63.20
2018-12-26T18:08:30.665Z,63.25
2018-12-26T18:11:02.483Z,63.27
2018-12-26T18:13:34.265Z,63.30
2018-12-26T18:16:06.014Z,63.35
2018-12-26T18:18:37.697Z,63.35
2018-12-26T18:21:10.074Z,63.37
2018-12-26T18:23:41.758Z,63.32
2018-12-26T18:26:13.733Z,63.40
2018-12-26T18:28:45.436Z,63.44
2018-12-26T18:31:21.942Z,63.40
2018-12-26T18:33:50.451Z,63.40
2018-12-26T18:36:22.949Z,63.43
2018-12-26T18:38:54.764Z,63.47
2018-12-26T18:41:26.494Z,63.46
2018-12-26T18:43:58.202Z,63.43
2018-12-26T18:46:29.877Z,63.39
2018-12-26T18:49:02.020Z,63.36
2018-12-26T18:51:33.776Z,63.32
2018-12-26T18:54:06.705Z,63.34
2018-12-26T18:56:38.533Z,63.40
2018-12-26T18:59:10.410Z,63.41
2018-12-26T19:01:42.134Z,63.40
2018-12-26T19:04:13.884Z,63.42
2018-12-26T19:06:47.181Z,63.42
2018-12-26T19:09:19.707Z,63.39
2018-12-26T19:11:51.425Z,63.35
2018-12-26T19:14:23.264Z,63.33
2018-12-26T19:16:55.044Z,63.31
2018-12-26T19:19:26.788Z,63.28
2018-12-26T19:21:58.472Z,63.28
2018-12-26T19:24:30.596Z,63.28
2018-12-26T19:27:02.317Z,63.26
2018-12-26T19:29:34.057Z,63.24
2018-12-26T19:32:06.816Z,63.25
2018-12-26T19:34:39.102Z,63.29
2018-12-26T19:37:11.021Z,63.26
2018-12-26T19:39:42.918Z,63.22
2018-12-26T19:42:14.964Z,63.21
2018-12-26T19:44:47.307Z,63.20
2018-12-26T19:47:19.092Z,63.25
2018-12-26T19:49:50.994Z,63.25
2018-12-26T19:52:22.751Z,63.27
2018-12-26T19:54:54.624Z,63.24
2018-12-26T19:57:26.998Z,63.19
2018-12-26T19:59:58.735Z,63.12
2018-12-26T20:02:30.496Z,63.08
2018-12-26T20:05:02.242Z,63.02
2018-12-26T20:07:34.046Z,63.08
2018-12-26T20:10:06.882Z,63.12
2018-12-26T20:12:40.386Z,63.18
2018-12-26T20:15:12.796Z,63.20
2018-12-26T20:17:44.628Z,63.17
2018-12-26T20:20:17.175Z,63.12
2018-12-26T20:22:49.142Z,63.05
2018-12-26T20:25:20.901Z,62.95
2018-12-26T20:27:53.153Z,62.94
2018-12-26T20:30:24.995Z,63.01
2018-12-26T20:32:56.694Z,63.09
2018-12-26T20:35:28.403Z,63.20
2018-12-26T20:38:00.441Z,63.20
2018-12-26T20:40:32.276Z,63.04
2018-12-26T20:43:04.724Z,63.01
2018-12-26T20:45:36.481Z,63.04
2018-12-26T20:48:08.286Z,63.12
2018-12-26T20:50:40.145Z,63.24
2018-12-26T20:53:12.170Z,63.33
2018-12-26T20:55:44.694Z,63.49
2018-12-26T20:58:17.138Z,63.58
2018-12-26T21:00:49.281Z,63.66
2018-12-26T21:03:21.053Z,63.63
2018-12-26T21:05:53.258Z,63.52
2018-12-26T21:08:25.178Z,63.45
2018-12-26T21:10:56.887Z,63.35
2018-12-26T21:13:28.616Z,63.29
2018-12-26T21:16:01.056Z,63.27
2018-12-26T21:18:32.802Z,63.28
2018-12-26T21:21:05.840Z,63.29
2018-12-26T21:23:37.538Z,63.25
2018-12-26T21:26:09.394Z,63.29
2018-12-26T21:28:41.434Z,63.31
2018-12-26T21:31:13.867Z,63.25
2018-12-26T21:33:47.610Z,63.23
2018-12-26T21:36:19.321Z,63.27
2018-12-26T21:38:51.125Z,63.20
2018-12-26T21:41:22.980Z,63.09
2018-12-26T21:43:56.419Z,63.07
2018-12-26T21:46:29.001Z,63.15
2018-12-26T21:49:00.775Z,63.19
2018-12-26T21:51:32.762Z,63.23
2018-12-26T21:54:04.544Z,63.28
2018-12-26T21:56:36.894Z,63.28
2018-12-26T21:59:09.247Z,63.24
2018-12-26T22:01:41.015Z,63.19
2018-12-26T22:04:14.705Z,63.24
2018-12-26T22:06:46.456Z,63.30
2018-12-26T22:09:18.245Z,63.30
2018-12-26T22:11:50.124Z,63.28
2018-12-26T22:14:21.948Z,63.31
2018-12-26T22:16:53.767Z,63.32
2018-12-26T22:19:26.006Z,63.33
2018-12-26T22:21:57.794Z,63.29
2018-12-26T22:24:29.572Z,63.30
2018-12-26T22:27:01.483Z,63.24
2018-12-26T22:29:33.205Z,63.22
2018-12-26T22:32:05.347Z,63.25
2018-12-26T22:34:37.658Z,63.20
2018-12-26T22:37:09.400Z,63.25
2018-12-26T22:39:41.116Z,63.24
2018-12-26T22:42:13.071Z,63.26
2018-12-26T22:44:44.818Z,63.22
2018-12-26T22:47:17.157Z,63.13
2018-12-26T22:49:49.616Z,63.22
2018-12-26T22:52:21.258Z,63.32
2018-12-26T22:54:54.831Z,63.35
2018-12-26T22:57:26.839Z,63.25
2018-12-26T22:59:58.510Z,63.22
2018-12-26T23:02:30.321Z,63.21
2018-12-26T23:05:02.439Z,63.19
2018-12-26T23:07:35.805Z,63.18
2018-12-26T23:10:09.065Z,63.11
2018-12-26T23:12:45.688Z,63.09
2018-12-26T23:15:19.730Z,63.11
2018-12-26T23:17:51.497Z,63.12
2018-12-26T23:20:23.463Z,63.11
2018-12-26T23:22:55.952Z,63.12
2018-12-26T23:25:27.767Z,63.13
2018-12-26T23:27:59.433Z,63.15
2018-12-26T23:30:31.184Z,63.14
2018-12-26T23:33:02.867Z,63.17
2018-12-26T23:35:34.511Z,63.16
2018-12-26T23:38:06.957Z,63.14
2018-12-26T23:40:38.787Z,63.15
2018-12-26T23:43:10.428Z,63.13
2018-12-26T23:45:42.392Z,63.14
2018-12-26T23:48:14.167Z,63.16
2018-12-26T23:50:46.865Z,63.23
2018-12-26T23:53:19.324Z,63.25
2018-12-26T23:55:51.317Z,63.28
2018-12-26T23:58:23.009Z,63.25
